Time;durP1;ratioP1;P1;durP2;ratioP2;P2;SDS_P1;SDS_P2;PMS_P1;PMS_P2;Temp;Humidity;BMP_temperature;BMP_pressure;BME280_temperature;BME280_humidity;BME280_pressure;Samples;Min_cycle;Max_cycle;Signal;HPM_P1;HPM_P2
2023/05/04 00:01:56;;;;;;;7.90;3.90;;;;;;;5.87;72.97;101809.70;108482;1254;73425;-69
2023/05/04 00:04:23;;;;;;;8.60;3.90;;;;;;;5.83;73.21;101811.02;108600;1252;70864;-69
2023/05/04 00:06:49;;;;;;;8.50;4.10;;;;;;;5.80;73.47;101808.12;108038;1253;70684;-69
2023/05/04 00:09:16;;;;;;;9.30;4.00;;;;;;;5.77;73.61;101808.16;108276;1254;61430;-69
2023/05/04 00:11:43;;;;;;;8.10;4.40;;;;;;;5.74;73.71;101807.33;108697;1252;61165;-70
2023/05/04 00:14:10;;;;;;;8.90;4.00;;;;;;;5.69;73.91;101808.35;108419;1253;74362;-70
2023/05/04 00:16:36;;;;;;;8.40;4.00;;;;;;;5.67;74.22;101807.66;108834;1254;71325;-70
2023/05/04 00:19:03;;;;;;;9.70;3.90;;;;;;;5.64;74.27;101806.64;108520;1254;71482;-69
2023/05/04 00:21:30;;;;;;;6.10;3.80;;;;;;;5.61;74.31;101806.89;108268;1254;59756;-69
2023/05/04 00:23:57;;;;;;;7.90;4.00;;;;;;;5.56;74.37;101806.07;108722;1253;60319;-69
2023/05/04 00:26:23;;;;;;;9.50;4.20;;;;;;;5.52;74.52;101803.19;108198;1253;74384;-69
2023/05/04 00:28:50;;;;;;;8.20;4.00;;;;;;;5.47;74.75;101802.12;108319;1253;72225;-68
2023/05/04 00:31:17;;;;;;;8.00;4.20;;;;;;;5.43;75.06;101801.05;108724;1254;70638;-69
2023/05/04 00:33:44;;;;;;;7.80;4.80;;;;;;;5.41;75.34;101800.34;108078;1253;406762;-69
2023/05/04 00:36:12;;;;;;;8.20;4.10;;;;;;;5.39;75.47;101798.90;108607;1252;59523;-70
2023/05/04 00:38:50;;;;;;;9.20;4.20;;;;;;;5.38;75.80;101798.81;108352;1253;73713;-70
2023/05/04 00:41:18;;;;;;;11.50;4.60;;;;;;;5.38;75.83;101792.30;108444;1254;72875;-68
2023/05/04 00:43:45;;;;;;;8.90;3.60;;;;;;;5.37;75.77;101794.10;108414;1254;70657;-67
2023/05/04 00:46:12;;;;;;;7.40;3.60;;;;;;;5.35;75.91;101797.77;108393;1254;61304;-69
2023/05/04 00:48:40;;;;;;;7.10;3.60;;;;;;;5.33;76.00;101791.27;108360;1254;60393;-69
2023/05/04 00:51:09;;;;;;;9.40;3.70;;;;;;;5.30;76.14;101787.44;109120;1253;74503;-69
2023/05/04 00:53:37;;;;;;;7.20;3.50;;;;;;;5.28;76.24;101784.80;108842;1253;69590;-67
2023/05/04 00:56:06;;;;;;;9.40;3.90;;;;;;;5.26;76.37;101785.42;108389;1253;71717;-68
2023/05/04 00:58:34;;;;;;;8.70;3.90;;;;;;;5.24;76.45;101782.74;108459;1254;61165;-68
2023/05/04 01:01:02;;;;;;;9.30;4.40;;;;;;;5.23;76.55;101783.55;108406;1254;59580;-69
2023/05/04 01:03:30;;;;;;;8.50;4.00;;;;;;;5.21;76.55;101776.38;108246;1252;76020;-69
2023/05/04 01:06:27;;;;;;;9.30;4.10;;;;;;;5.17;76.52;101775.56;108387;1252;71236;-67
2023/05/04 01:09:16;;;;;;;9.50;4.20;;;;;;;5.14;76.67;101775.81;108128;1253;71756;-69
2023/05/04 01:12:03;;;;;;;7.70;3.60;;;;;;;5.10;76.84;101771.92;108143;1254;61787;-68
2023/05/04 01:14:30;;;;;;;7.30;3.80;;;;;;;5.05;76.79;101767.19;108489;1253;61195;-68
2023/05/04 01:16:58;;;;;;;9.00;3.70;;;;;;;5.02;77.02;101772.63;108634;1253;74687;-68
2023/05/04 01:19:27;;;;;;;6.00;3.60;;;;;;;4.98;76.92;101769.81;108884;1254;71259;-68
2023/05/04 01:21:55;;;;;;;6.80;3.30;;;;;;;4.94;76.97;101769.58;108437;1253;73899;-68
2023/05/04 01:24:24;;;;;;;7.40;3.50;;;;;;;4.91;77.43;101769.23;108333;1252;60921;-70
2023/05/04 01:26:59;;;;;;;7.10;3.80;;;;;;;4.89;77.51;101768.20;108536;1253;61663;-70
2023/05/04 01:29:51;;;;;;;8.40;3.50;;;;;;;4.87;77.63;101767.63;108156;1252;75816;-68
2023/05/04 01:32:20;;;;;;;7.70;3.60;;;;;;;4.84;77.67;101766.23;108057;1254;71386;-70
2023/05/04 01:34:47;;;;;;;8.30;4.00;;;;;;;4.82;77.90;101768.30;108203;1254;70871;-68
2023/05/04 01:37:13;;;;;;;9.50;3.60;;;;;;;4.81;78.00;101767.50;108434;1253;60922;-69
2023/05/04 01:39:40;;;;;;;7.90;3.90;;;;;;;4.80;78.03;101768.80;108483;1254;61207;-69
2023/05/04 01:42:07;;;;;;;8.50;4.30;;;;;;;4.79;78.06;101771.89;108074;1253;60372;-69
2023/05/04 01:44:34;;;;;;;8.30;4.20;;;;;;;4.78;78.45;101772.84;107868;1254;71274;-70
2023/05/04 01:47:01;;;;;;;5.90;3.60;;;;;;;4.76;78.59;101773.46;108051;1253;71606;-69
2023/05/04 01:49:27;;;;;;;7.60;3.90;;;;;;;4.74;78.72;101768.53;108209;1253;59619;-69
2023/05/04 01:51:54;;;;;;;9.30;4.10;;;;;;;4.73;78.75;101771.97;107940;1254;61464;-69
2023/05/04 01:54:21;;;;;;;11.40;4.10;;;;;;;4.70;78.80;101771.10;108209;1253;74783;-68
2023/05/04 01:56:48;;;;;;;8.50;4.10;;;;;;;4.69;78.93;101771.89;108460;1253;69978;-69
2023/05/04 01:59:14;;;;;;;8.00;4.10;;;;;;;4.68;78.98;101773.70;107956;1253;72300;-69
2023/05/04 02:01:41;;;;;;;8.90;4.10;;;;;;;4.67;79.13;101774.27;107787;1252;61189;-68
2023/05/04 02:04:08;;;;;;;7.40;4.10;;;;;;;4.65;79.04;101774.64;107492;1254;61381;-70
2023/05/04 02:06:35;;;;;;;8.30;4.30;;;;;;;4.62;79.19;101773.61;108363;1253;74943;-69
2023/05/04 02:09:02;;;;;;;9.00;4.10;;;;;;;4.59;79.15;101775.56;107994;1253;69807;-69
2023/05/04 02:11:29;;;;;;;8.30;4.00;;;;;;;4.56;79.27;101777.90;108134;1253;71688;-68
2023/05/04 02:13:56;;;;;;;10.30;4.00;;;;;;;4.53;79.22;101774.24;108315;1253;61099;-69
2023/05/04 02:16:22;;;;;;;8.40;4.70;;;;;;;4.50;79.31;101773.45;107994;1252;61126;-69
2023/05/04 02:18:49;;;;;;;6.90;3.80;;;;;;;4.47;79.44;101770.60;107786;1253;74295;-69
2023/05/04 02:21:16;;;;;;;8.70;4.20;;;;;;;4.45;79.64;101772.91;108090;1253;59418;-69
2023/05/04 02:23:43;;;;;;;9.00;4.40;;;;;;;4.42;79.71;101776.39;107596;1253;72765;-68
2023/05/04 02:26:10;;;;;;;7.10;3.90;;;;;;;4.40;79.61;101777.44;108169;1253;60360;-70
2023/05/04 02:28:37;;;;;;;5.70;3.50;;;;;;;4.36;79.66;101771.21;108262;1253;61224;-68
2023/05/04 02:31:03;;;;;;;8.30;3.90;;;;;;;4.32;79.75;101775.18;108306;1253;74736;-70
2023/05/04 02:33:30;;;;;;;9.10;4.10;;;;;;;4.29;79.71;101775.27;107784;1253;71137;-69
2023/05/04 02:35:57;;;;;;;8.80;4.00;;;;;;;4.23;80.01;101775.84;107698;1253;72221;-70
2023/05/04 02:38:25;;;;;;;6.20;4.00;;;;;;;4.19;80.23;101779.66;107966;1252;60324;-68
2023/05/04 02:40:52;;;;;;;6.90;4.10;;;;;;;4.15;80.21;101780.23;107821;1253;62924;-69
2023/05/04 02:43:18;;;;;;;6.40;3.80;;;;;;;4.10;80.22;101780.23;108154;1253;61224;-71
2023/05/04 02:45:45;;;;;;;7.70;4.10;;;;;;;4.06;80.42;101773.13;108281;1253;69866;-70
2023/05/04 02:48:11;;;;;;;9.70;4.30;;;;;;;4.03;80.70;101775.45;108227;1253;71280;-70
2023/05/04 02:50:38;;;;;;;8.20;4.00;;;;;;;3.99;80.70;101777.50;108115;1253;61241;-70
2023/05/04 02:53:05;;;;;;;9.10;4.40;;;;;;;3.96;81.07;101779.10;107810;1253;61229;-71
2023/05/04 02:55:32;;;;;;;8.00;4.20;;;;;;;3.94;81.20;101775.93;107667;1256;73472;-70
2023/05/04 02:57:58;;;;;;;8.90;4.20;;;;;;;3.93;81.46;101776.86;107964;1252;70122;-69
2023/05/04 03:00:25;;;;;;;8.70;3.90;;;;;;;3.91;81.34;101775.23;108097;1253;70434;-68
2023/05/04 03:02:52;;;;;;;9.20;4.40;;;;;;;3.89;81.48;101776.46;108164;1253;61336;-69
2023/05/04 03:05:19;;;;;;;8.70;4.20;;;;;;;3.85;81.84;101773.89;108206;1254;59535;-69
2023/05/04 03:07:46;;;;;;;8.10;4.20;;;;;;;3.84;81.75;101768.21;108116;1253;72157;-70
2023/05/04 03:10:13;;;;;;;8.20;4.00;;;;;;;3.81;81.83;101767.88;107888;1253;71282;-70
2023/05/04 03:12:39;;;;;;;7.30;3.90;;;;;;;3.80;82.05;101760.24;107966;1253;72003;-70
2023/05/04 03:15:07;;;;;;;7.30;4.00;;;;;;;3.77;81.97;101756.95;107884;1252;61285;-70
2023/05/04 03:17:34;;;;;;;8.20;4.00;;;;;;;3.75;82.20;101759.55;107967;1253;62465;-70
2023/05/04 03:20:00;;;;;;;7.50;3.80;;;;;;;3.71;82.01;101757.52;107929;1253;72196;-70
2023/05/04 03:22:27;;;;;;;7.10;4.00;;;;;;;3.68;82.25;101752.11;108277;1253;70400;-70
2023/05/04 03:24:54;;;;;;;11.70;4.10;;;;;;;3.67;82.48;101752.73;108147;1253;71116;-69
2023/05/04 03:27:21;;;;;;;9.60;4.30;;;;;;;3.66;82.38;101749.65;107525;1252;63866;-70
2023/05/04 03:29:48;;;;;;;11.80;4.50;;;;;;;3.64;82.61;101757.12;108079;1252;62657;-70
2023/05/04 03:32:15;;;;;;;10.30;4.40;;;;;;;3.62;82.56;101752.73;107993;1253;74377;-69
2023/05/04 03:34:42;;;;;;;5.70;4.00;;;;;;;3.59;82.73;101752.02;108300;1253;70563;-70
2023/05/04 03:37:08;;;;;;;9.10;4.00;;;;;;;3.56;82.51;101752.91;107923;1252;71139;-70
2023/05/04 03:39:35;;;;;;;7.20;4.00;;;;;;;3.56;83.13;101751.03;107848;1253;60362;-69
2023/05/04 03:42:02;;;;;;;7.10;4.10;;;;;;;3.58;82.98;101751.26;108544;1257;59770;-70
2023/05/04 03:44:29;;;;;;;8.60;4.00;;;;;;;3.59;83.01;101748.39;108284;1253;73514;-70
2023/05/04 03:46:56;;;;;;;7.90;4.10;;;;;;;3.61;83.18;101745.10;108000;1252;70913;-69
2023/05/04 03:49:22;;;;;;;7.00;4.20;;;;;;;3.63;83.27;101744.55;108082;1253;72470;-69
2023/05/04 03:51:49;;;;;;;9.90;4.80;;;;;;;3.66;83.17;101739.46;107922;1253;61356;-70
2023/05/04 03:54:16;;;;;;;8.80;4.10;;;;;;;3.69;83.41;101741.38;108263;1253;60048;-68
2023/05/04 03:56:43;;;;;;;6.40;4.00;;;;;;;3.72;83.49;101741.40;107966;1257;74464;-70
2023/05/04 03:59:09;;;;;;;8.40;4.40;;;;;;;3.74;83.14;101740.20;107822;1253;72008;-69
2023/05/04 04:01:36;;;;;;;8.10;3.80;;;;;;;3.75;83.26;101737.88;108248;1252;72824;-69
2023/05/04 04:04:03;;;;;;;9.00;3.90;;;;;;;3.77;83.47;101742.78;108075;1253;61420;-70
2023/05/04 04:06:30;;;;;;;11.30;4.20;;;;;;;3.81;83.27;101738.66;108048;1253;61151;-69
2023/05/04 04:08:57;;;;;;;9.90;4.50;;;;;;;3.82;83.18;101736.85;108175;1253;75220;-70
2023/05/04 04:11:25;;;;;;;8.40;4.20;;;;;;;3.84;83.01;101733.52;107807;1253;69919;-70
2023/05/04 04:13:52;;;;;;;7.70;4.30;;;;;;;3.88;83.25;101727.84;107987;1253;71438;-70
2023/05/04 04:16:21;;;;;;;6.50;3.80;;;;;;;3.93;83.58;101728.38;107941;1253;60470;-70
2023/05/04 04:18:48;;;;;;;5.70;4.10;;;;;;;3.97;83.12;101729.13;108016;1253;61168;-69
2023/05/04 04:21:14;;;;;;;9.00;4.10;;;;;;;4.01;83.08;101723.98;108172;1253;75301;-72
2023/05/04 04:23:42;;;;;;;11.00;3.60;;;;;;;4.06;83.08;101727.11;108162;1253;71167;-69
2023/05/04 04:26:09;;;;;;;8.00;3.60;;;;;;;4.09;83.11;101727.21;107973;1253;72709;-69
2023/05/04 04:28:35;;;;;;;7.30;3.60;;;;;;;4.10;83.18;101727.35;108008;1253;61449;-69
2023/05/04 04:31:02;;;;;;;7.80;3.80;;;;;;;4.11;82.95;101727.11;107821;1253;62037;-69
2023/05/04 04:33:29;;;;;;;7.30;3.90;;;;;;;4.14;83.43;101724.78;107712;1253;73862;-70
2023/05/04 04:35:56;;;;;;;6.70;3.60;;;;;;;4.20;83.42;101725.14;107680;1253;71046;-70
2023/05/04 04:38:23;;;;;;;8.10;4.30;;;;;;;4.27;83.50;101729.36;108420;1251;73756;-69
2023/05/04 04:40:50;;;;;;;9.10;4.40;;;;;;;4.31;83.85;101725.00;108376;1253;61234;-70
2023/05/04 04:43:17;;;;;;;8.70;4.20;;;;;;;4.37;83.66;101723.05;108254;1253;60440;-70
2023/05/04 04:45:45;;;;;;;7.80;3.70;;;;;;;4.46;83.29;101720.83;109190;1253;73910;-70
2023/05/04 04:48:12;;;;;;;7.80;3.60;;;;;;;4.56;83.30;101714.86;108851;1253;70384;-71
2023/05/04 04:50:39;;;;;;;6.80;3.60;;;;;;;4.65;83.11;101718.74;107884;1253;72364;-70
2023/05/04 04:53:05;;;;;;;5.80;3.30;;;;;;;4.76;83.00;101723.73;108166;1253;61695;-71
2023/05/04 04:55:33;;;;;;;7.70;3.80;;;;;;;4.85;82.90;101720.24;108060;1253;61179;-71
2023/05/04 04:58:00;;;;;;;5.80;3.10;;;;;;;4.96;82.58;101718.91;108343;1253;73106;-70
2023/05/04 05:00:27;;;;;;;6.30;3.20;;;;;;;5.07;82.36;101717.92;108349;1253;71170;-70
2023/05/04 05:02:53;;;;;;;8.60;3.50;;;;;;;5.17;82.21;101718.92;107834;1252;72424;-70
2023/05/04 05:05:20;;;;;;;5.70;3.10;;;;;;;5.25;81.95;101719.88;107815;1252;61697;-69
2023/05/04 05:07:47;;;;;;;5.30;3.40;;;;;;;5.38;81.86;101718.45;108052;1252;62426;-71
2023/05/04 05:10:14;;;;;;;6.30;3.30;;;;;;;5.49;81.89;101717.23;107976;1253;74363;-70
2023/05/04 05:12:40;;;;;;;6.80;3.10;;;;;;;5.60;81.56;101717.66;107853;1254;71238;-70
2023/05/04 05:15:08;;;;;;;8.00;3.20;;;;;;;5.71;81.36;101717.48;108364;1253;71475;-70
2023/05/04 05:17:36;;;;;;;7.60;3.40;;;;;;;5.80;81.16;101716.46;108210;1253;60749;-71
2023/05/04 05:20:09;;;;;;;8.80;3.40;;;;;;;5.90;81.14;101713.02;107692;1253;61237;-70
2023/05/04 05:22:39;;;;;;;7.10;3.60;;;;;;;6.02;80.93;101712.13;108042;1253;72970;-71
2023/05/04 05:25:06;;;;;;;6.60;3.70;;;;;;;6.16;80.91;101707.92;107685;1253;69725;-70
2023/05/04 05:27:34;;;;;;;7.80;3.20;;;;;;;6.29;80.47;101701.91;107564;1253;72708;-73
2023/05/04 05:30:01;;;;;;;7.80;3.70;;;;;;;6.41;80.37;101701.87;108030;1253;61282;-70
2023/05/04 05:32:29;;;;;;;5.90;3.40;;;;;;;6.52;80.17;101699.42;108143;1252;61164;-69
2023/05/04 05:34:56;;;;;;;7.50;4.00;;;;;;;6.65;79.93;101697.14;108429;1253;73626;-69
2023/05/04 05:37:23;;;;;;;6.20;3.40;;;;;;;6.81;79.82;101696.90;108361;1253;69698;-70
2023/05/04 05:39:50;;;;;;;7.40;3.20;;;;;;;6.94;79.33;101699.33;108312;1253;71315;-70
2023/05/04 05:42:16;;;;;;;6.60;3.40;;;;;;;7.05;79.17;101702.08;108058;1254;60266;-71
2023/05/04 05:44:43;;;;;;;8.50;3.70;;;;;;;7.18;79.11;101701.02;108270;1252;61334;-68
2023/05/04 05:47:09;;;;;;;9.60;3.60;;;;;;;7.38;79.20;101703.63;108262;1253;75671;-71
2023/05/04 05:49:36;;;;;;;9.20;3.80;;;;;;;7.57;78.98;101703.92;108181;1253;69515;-69
2023/05/04 05:52:03;;;;;;;7.50;3.60;;;;;;;7.73;78.56;101706.44;108339;1253;73866;-69
2023/05/04 05:54:31;;;;;;;9.00;3.90;;;;;;;7.87;78.35;101708.05;107604;1254;61132;-71
2023/05/04 05:56:58;;;;;;;8.80;4.10;;;;;;;8.03;78.08;101703.12;108356;1252;59369;-70
2023/05/04 05:59:25;;;;;;;8.30;3.70;;;;;;;8.23;77.69;101706.56;107774;1253;73410;-70
2023/05/04 06:01:51;;;;;;;8.60;4.20;;;;;;;8.43;77.17;101709.55;108130;1253;69704;-70
2023/05/04 06:04:19;;;;;;;8.40;4.10;;;;;;;8.63;76.31;101710.04;108424;1253;72396;-71
2023/05/04 06:06:47;;;;;;;8.60;3.90;;;;;;;8.77;75.05;101706.69;108149;1253;61199;-71
2023/05/04 06:09:14;;;;;;;10.40;4.00;;;;;;;8.89;74.44;101707.86;107775;1253;61183;-70
2023/05/04 06:11:40;;;;;;;9.20;4.10;;;;;;;9.05;73.34;101710.50;108266;1253;74737;-70
2023/05/04 06:14:07;;;;;;;9.40;4.50;;;;;;;9.19;72.46;101705.34;108086;1253;69625;-69
2023/05/04 06:16:34;;;;;;;11.10;3.90;;;;;;;9.36;72.09;101703.48;107967;1253;72746;-71
2023/05/04 06:19:01;;;;;;;10.10;3.90;;;;;;;9.53;71.45;101707.18;108223;1253;61166;-70
2023/05/04 06:21:28;;;;;;;9.60;3.60;;;;;;;9.68;70.15;101704.94;108112;1253;61903;-72
2023/05/04 06:23:54;;;;;;;11.10;4.00;;;;;;;9.78;69.71;101701.61;108244;1253;73479;-70
2023/05/04 06:26:21;;;;;;;10.50;4.10;;;;;;;9.95;70.25;101700.94;108200;1253;70072;-71
2023/05/04 06:28:48;;;;;;;12.30;4.00;;;;;;;10.15;69.58;101698.43;108009;1253;72931;-70
2023/05/04 06:31:15;;;;;;;8.40;3.70;;;;;;;10.38;69.54;101701.60;107806;1253;62177;-71
2023/05/04 06:33:42;;;;;;;7.00;3.50;;;;;;;10.62;69.18;101701.37;107976;1253;59555;-69
2023/05/04 06:36:09;;;;;;;7.50;3.30;;;;;;;10.84;68.17;101700.61;108012;1254;74690;-70
2023/05/04 06:38:35;;;;;;;7.20;3.10;;;;;;;11.02;66.39;101702.57;107844;1253;69656;-71
2023/05/04 06:41:04;;;;;;;9.40;3.30;;;;;;;11.16;65.06;101700.48;108303;1252;71546;-69
2023/05/04 06:43:32;;;;;;;8.30;3.30;;;;;;;11.31;64.14;101702.20;107741;1253;61881;-70
2023/05/04 06:46:02;;;;;;;9.00;3.40;;;;;;;11.49;63.68;101701.77;107930;1254;61549;-71
2023/05/04 06:48:30;;;;;;;6.40;3.00;;;;;;;11.65;62.90;101700.48;107845;1257;73529;-71
2023/05/04 06:50:57;;;;;;;9.70;3.20;;;;;;;11.82;62.09;101701.02;108373;1253;69671;-71
2023/05/04 06:53:28;;;;;;;9.00;3.30;;;;;;;11.99;61.61;101701.20;108055;1252;71153;-71
2023/05/04 06:55:54;;;;;;;10.30;3.20;;;;;;;12.18;61.02;101699.11;108124;1253;61278;-70
2023/05/04 06:58:22;;;;;;;9.00;2.90;;;;;;;12.36;60.69;101701.30;108116;1253;59128;-70
2023/05/04 07:00:48;;;;;;;6.90;3.00;;;;;;;12.47;58.94;101700.80;108205;1253;74658;-71
2023/05/04 07:03:15;;;;;;;9.00;3.20;;;;;;;12.55;58.20;101703.02;107909;1253;69986;-70
2023/05/04 07:05:44;;;;;;;7.70;3.50;;;;;;;12.66;57.72;101707.21;108294;1253;72093;-71
2023/05/04 07:08:11;;;;;;;7.40;2.40;;;;;;;12.83;58.00;101704.33;108087;1252;61177;-70
2023/05/04 07:10:38;;;;;;;7.40;2.80;;;;;;;12.96;57.31;101703.39;107840;1253;61299;-69
2023/05/04 07:13:05;;;;;;;6.20;2.70;;;;;;;13.08;56.97;101704.39;108477;1253;72492;-70
2023/05/04 07:15:32;;;;;;;6.00;2.50;;;;;;;13.23;56.58;101705.49;107828;1259;73429;-71
2023/05/04 07:18:00;;;;;;;7.40;2.70;;;;;;;13.30;55.43;101704.98;107644;1253;72578;-71
2023/05/04 07:20:27;;;;;;;5.10;2.60;;;;;;;13.34;55.14;101702.31;107624;1252;61356;-71
2023/05/04 07:22:57;;;;;;;6.50;2.50;;;;;;;13.44;55.16;101699.27;108252;1253;61183;-71
2023/05/04 07:25:24;;;;;;;5.60;2.50;;;;;;;13.51;54.86;101698.00;107714;1253;72282;-69
2023/05/04 07:27:52;;;;;;;6.60;2.60;;;;;;;13.55;54.13;101695.79;108332;1253;70681;-72
2023/05/04 07:30:19;;;;;;;6.30;2.60;;;;;;;13.61;54.27;101698.96;107814;1253;72661;-71
2023/05/04 07:32:46;;;;;;;6.90;2.50;;;;;;;13.73;54.27;101697.47;108065;1253;61254;-71
2023/05/04 07:35:14;;;;;;;6.30;2.70;;;;;;;13.86;54.01;101694.60;107709;1252;61267;-70
2023/05/04 07:37:40;;;;;;;6.00;2.30;;;;;;;14.04;54.40;101696.89;107963;1252;74685;-71
2023/05/04 07:40:07;;;;;;;6.40;2.30;;;;;;;14.17;53.01;101693.84;108210;1252;70002;-72
2023/05/04 07:42:35;;;;;;;7.50;2.50;;;;;;;14.28;52.69;101692.95;107886;1253;71458;-71
2023/05/04 07:45:02;;;;;;;6.40;2.80;;;;;;;14.33;52.17;101692.73;108676;1252;60522;-71
2023/05/04 07:47:29;;;;;;;5.00;2.30;;;;;;;14.39;51.81;101685.13;107728;1252;61112;-71
2023/05/04 07:49:56;;;;;;;7.20;2.90;;;;;;;14.49;52.11;101686.44;107365;1253;74645;-70
2023/05/04 07:52:23;;;;;;;6.30;2.30;;;;;;;14.58;51.81;101684.02;107830;1257;69760;-70
2023/05/04 07:54:53;;;;;;;5.40;2.70;;;;;;;14.65;51.57;101681.92;107974;1253;72470;-71
2023/05/04 07:57:20;;;;;;;7.40;2.60;;;;;;;14.77;51.39;101678.25;107897;1253;61369;-72
2023/05/04 07:59:47;;;;;;;7.30;2.30;;;;;;;14.89;51.67;101676.11;108383;1253;59596;-71
2023/05/04 08:02:14;;;;;;;4.70;2.20;;;;;;;15.04;51.39;101674.60;108455;1253;74851;-71
2023/05/04 08:04:41;;;;;;;5.60;2.50;;;;;;;15.20;50.51;101675.60;107847;1253;71115;-73
2023/05/04 08:07:08;;;;;;;5.50;2.10;;;;;;;15.33;50.05;101676.63;107988;1253;72698;-73
2023/05/04 08:09:34;;;;;;;5.70;2.40;;;;;;;15.48;49.81;101674.34;107503;1253;61831;-72
2023/05/04 08:12:01;;;;;;;6.70;2.20;;;;;;;15.55;49.05;101671.19;107910;1252;61308;-73
2023/05/04 08:14:28;;;;;;;6.20;2.50;;;;;;;15.63;48.71;101671.31;107760;1253;72630;-72
2023/05/04 08:16:54;;;;;;;7.10;2.20;;;;;;;15.74;48.97;101671.80;108260;1253;69608;-72
2023/05/04 08:19:21;;;;;;;6.80;2.20;;;;;;;15.87;48.24;101667.55;108453;1253;72511;-71
2023/05/04 08:21:48;;;;;;;5.40;2.00;;;;;;;15.91;47.39;101666.56;107601;1254;60139;-72
2023/05/04 08:24:17;;;;;;;5.90;2.10;;;;;;;15.81;47.18;101662.56;107847;1254;61126;-72
2023/05/04 08:26:43;;;;;;;5.30;2.40;;;;;;;15.69;47.16;101662.15;107953;1253;74036;-72
2023/05/04 08:29:21;;;;;;;6.20;2.40;;;;;;;15.72;47.86;101667.05;107673;1253;69806;-72
2023/05/04 08:31:48;;;;;;;6.80;2.40;;;;;;;15.85;47.73;101665.66;107691;1253;72402;-72
2023/05/04 08:34:15;;;;;;;6.60;2.20;;;;;;;15.96;47.44;101662.20;108063;1253;59715;-72
2023/05/04 08:36:42;;;;;;;6.00;1.80;;;;;;;16.08;46.90;101657.00;108559;1253;59012;-71
2023/05/04 08:39:10;;;;;;;5.50;2.20;;;;;;;16.18;46.72;101651.12;108334;1253;73636;-72
2023/05/04 08:41:40;;;;;;;6.40;2.40;;;;;;;16.36;46.76;101649.45;107698;1253;70592;-73
2023/05/04 08:44:09;;;;;;;6.50;2.30;;;;;;;16.62;46.90;101648.44;107849;1253;71950;-72
2023/05/04 08:46:39;;;;;;;5.60;2.10;;;;;;;16.82;46.20;101644.81;107772;1253;61222;-71
2023/05/04 08:49:07;;;;;;;4.90;2.30;;;;;;;17.07;45.24;101641.90;108230;1253;60112;-72
2023/05/04 08:51:35;;;;;;;5.50;2.10;;;;;;;17.11;44.49;101635.25;108015;1253;74429;-73
2023/05/04 08:54:08;;;;;;;6.10;2.30;;;;;;;17.19;44.67;101632.71;107821;1252;71171;-73
2023/05/04 08:56:35;;;;;;;4.40;2.00;;;;;;;17.14;43.52;101627.59;108570;1252;71686;-73
2023/05/04 08:59:02;;;;;;;6.30;2.30;;;;;;;16.90;43.56;101623.23;107894;1253;61311;-72
2023/05/04 09:01:31;;;;;;;7.80;2.40;;;;;;;16.91;44.84;101621.73;107549;1253;60825;-74
2023/05/04 09:04:02;;;;;;;5.60;2.20;;;;;;;17.02;44.35;101618.31;107902;1253;74592;-73
2023/05/04 09:06:30;;;;;;;5.90;2.50;;;;;;;17.17;43.71;101617.88;108146;1253;70947;-72
2023/05/04 09:08:57;;;;;;;5.70;2.20;;;;;;;17.29;43.47;101615.44;108089;1255;72688;-73
2023/05/04 09:11:23;;;;;;;5.60;2.30;;;;;;;17.38;43.55;101613.71;108044;1253;60489;-73
2023/05/04 09:13:50;;;;;;;6.10;2.00;;;;;;;17.39;43.22;101614.55;107867;1259;61155;-72
2023/05/04 09:16:18;;;;;;;5.90;2.30;;;;;;;17.35;43.34;101608.13;107923;1253;73030;-71
2023/05/04 09:18:45;;;;;;;6.30;2.30;;;;;;;17.47;43.92;101608.15;107769;1253;70988;-72
2023/05/04 09:21:12;;;;;;;3.60;1.90;;;;;;;17.67;43.17;101609.33;108116;1253;73182;-71
2023/05/04 09:23:50;;;;;;;3.90;1.90;;;;;;;17.78;41.68;101606.29;107824;1254;60281;-72
2023/05/04 09:26:28;;;;;;;4.20;1.80;;;;;;;17.69;41.48;101606.92;108054;1254;61183;-72
2023/05/04 09:28:55;;;;;;;6.70;2.50;;;;;;;17.68;41.88;101605.08;107768;1254;73390;-73
2023/05/04 09:31:23;;;;;;;3.80;2.10;;;;;;;17.64;41.77;101598.76;108093;1253;70013;-73
2023/05/04 09:33:50;;;;;;;5.70;2.40;;;;;;;17.62;42.16;101599.20;108247;1253;71439;-73
2023/05/04 09:36:20;;;;;;;4.70;2.20;;;;;;;17.80;42.88;101595.32;107788;1253;61202;-72
2023/05/04 09:38:47;;;;;;;6.30;2.30;;;;;;;18.00;42.14;101598.21;107847;1253;60464;-73
2023/05/04 09:41:14;;;;;;;6.10;2.10;;;;;;;18.19;41.51;101593.09;108088;1253;74592;-73
2023/05/04 09:43:43;;;;;;;5.30;2.00;;;;;;;18.36;39.86;101590.88;108141;1253;69943;-72
2023/05/04 09:46:17;;;;;;;5.40;2.00;;;;;;;18.57;40.12;101585.49;107861;1253;71467;-73
2023/05/04 09:48:51;;;;;;;4.70;2.10;;;;;;;18.79;39.63;101587.00;108075;1256;62477;-74
2023/05/04 09:51:22;;;;;;;5.30;1.80;;;;;;;19.03;39.24;101578.46;108113;1254;60445;-72
2023/05/04 09:53:49;;;;;;;3.30;1.90;;;;;;;19.18;38.10;101576.95;108000;1253;74704;-73
2023/05/04 09:56:31;;;;;;;5.60;1.90;;;;;;;19.32;38.01;101573.98;108039;1253;69841;-72
2023/05/04 09:58:58;;;;;;;4.90;1.80;;;;;;;19.51;38.08;101575.60;108036;1253;72467;-73
2023/05/04 10:01:27;;;;;;;3.30;1.50;;;;;;;19.68;37.41;101568.17;108403;1256;61615;-73
2023/05/04 10:03:55;;;;;;;4.50;1.80;;;;;;;19.85;36.25;101566.05;107842;1253;61694;-72
2023/05/04 10:06:22;;;;;;;4.30;1.90;;;;;;;19.95;35.59;101562.13;107323;1253;74311;-73
2023/05/04 10:08:50;;;;;;;6.90;2.10;;;;;;;20.06;35.53;101561.81;107386;1253;69599;-74
2023/05/04 10:11:18;;;;;;;5.90;1.80;;;;;;;20.11;35.58;101560.91;108524;1252;70896;-72
2023/05/04 10:13:48;;;;;;;4.30;1.80;;;;;;;20.17;35.12;101559.23;108663;1253;59853;-72
2023/05/04 10:16:33;;;;;;;4.80;2.00;;;;;;;20.24;35.40;101553.96;107912;1252;60085;-73
2023/05/04 10:19:38;;;;;;;4.50;1.80;;;;;;;20.25;36.69;101554.36;107987;1253;75106;-73
2023/05/04 10:22:31;;;;;;;6.10;1.80;;;;;;;20.28;37.00;101549.86;108113;1253;71004;-73
2023/05/04 10:25:31;;;;;;;4.60;1.80;;;;;;;20.38;36.89;101546.34;107860;1254;71482;-73
2023/05/04 10:28:35;;;;;;;4.50;1.90;;;;;;;20.58;35.91;101541.55;108235;1253;60410;-73
2023/05/04 10:31:04;;;;;;;4.10;1.70;;;;;;;20.67;35.00;101544.02;108345;1254;61215;-72
2023/05/04 10:33:42;;;;;;;5.50;2.20;;;;;;;20.58;34.50;101539.98;108147;1253;73467;-72
2023/05/04 10:36:10;;;;;;;4.80;2.10;;;;;;;20.68;34.63;101541.39;107939;1256;69907;-73
2023/05/04 10:38:38;;;;;;;5.40;2.00;;;;;;;20.88;34.99;101535.31;107578;1253;73214;-75
2023/05/04 10:41:18;;;;;;;5.30;2.20;;;;;;;21.01;34.64;101537.39;107958;1253;59401;-72
2023/05/04 10:43:49;;;;;;;4.30;2.30;;;;;;;21.12;35.05;101535.72;108191;1253;61766;-73
2023/05/04 10:46:22;;;;;;;5.80;2.10;;;;;;;21.15;34.40;101532.57;108246;1252;73809;-73
2023/05/04 10:48:50;;;;;;;5.90;2.00;;;;;;;21.25;35.27;101529.80;108308;1252;70438;-73
2023/05/04 10:51:21;;;;;;;5.60;2.10;;;;;;;21.35;34.72;101524.66;107976;1254;71032;-72
2023/05/04 10:53:49;;;;;;;6.60;2.30;;;;;;;21.46;34.57;101524.01;108323;1253;61225;-73
2023/05/04 10:56:26;;;;;;;6.70;2.40;;;;;;;21.58;33.85;101518.46;107812;1258;60378;-73
2023/05/04 10:58:54;;;;;;;3.70;2.10;;;;;;;21.71;33.48;101510.80;107722;1253;73810;-73
2023/05/04 11:01:21;;;;;;;4.70;2.00;;;;;;;21.75;33.01;101508.63;107825;1253;70839;-73
2023/05/04 11:03:49;;;;;;;3.70;1.90;;;;;;;21.81;32.92;101509.50;107967;1252;73381;-73
2023/05/04 11:06:21;;;;;;;10.10;2.70;;;;;;;21.87;32.40;101505.39;108852;1254;60446;-73
2023/05/04 11:09:00;;;;;;;3.80;1.60;;;;;;;21.93;32.61;101494.56;107936;1253;61260;-72
2023/05/04 11:11:27;;;;;;;6.20;2.00;;;;;;;21.85;32.78;101494.95;107802;1253;73450;-72
2023/05/04 11:13:55;;;;;;;5.60;2.00;;;;;;;21.84;31.94;101492.13;108030;1253;70879;-72
2023/05/04 11:16:23;;;;;;;3.70;1.60;;;;;;;21.81;31.84;101485.45;107871;1259;71125;-71
2023/05/04 11:18:50;;;;;;;3.00;1.50;;;;;;;21.72;31.21;101483.38;107995;1252;62033;-73
2023/05/04 11:21:27;;;;;;;3.30;1.70;;;;;;;21.63;31.35;101480.65;108298;1253;60052;-73
2023/05/04 11:23:58;;;;;;;3.40;1.80;;;;;;;21.75;32.59;101482.33;108448;1256;75211;-71
2023/05/04 11:26:25;;;;;;;4.50;1.70;;;;;;;21.90;32.54;101478.45;108720;1253;71242;-73
2023/05/04 11:28:52;;;;;;;4.60;1.80;;;;;;;22.06;32.55;101475.45;107445;1257;71733;-72